createdAt,value
2019-05-03T00:00:01.000Z,99770
2019-05-03T00:01:31.000Z,99773
2019-05-03T00:02:46.000Z,99775
2019-05-03T00:05:01.000Z,99774
2019-05-03T00:06:46.000Z,99778
2019-05-03T00:08:01.000Z,99775
2019-05-03T00:09:46.000Z,99780
2019-05-03T00:11:01.000Z,99782
2019-05-03T00:12:47.000Z,99782
2019-05-03T00:14:31.000Z,99774
2019-05-03T00:15:46.000Z,99776
2019-05-03T00:17:46.000Z,99780
2019-05-03T00:19:47.000Z,99787
2019-05-03T00:21:47.000Z,99787
2019-05-03T00:23:47.000Z,99789
2019-05-03T00:25:47.000Z,99787
2019-05-03T00:27:01.000Z,99788
2019-05-03T00:28:46.000Z,99785
2019-05-03T00:30:46.000Z,99787
2019-05-03T00:32:01.000Z,99788
2019-05-03T00:34:02.000Z,99783
2019-05-03T00:36:02.000Z,99784
2019-05-03T00:37:32.000Z,99781
2019-05-03T00:39:47.000Z,99782
2019-05-03T00:41:32.000Z,99777
2019-05-03T00:43:02.000Z,99782
2019-05-03T00:45:02.000Z,99783
2019-05-03T00:46:32.000Z,99787
2019-05-03T00:48:47.000Z,99787
2019-05-03T00:50:47.000Z,99789
2019-05-03T00:52:02.000Z,99790
2019-05-03T00:53:46.000Z,99791
2019-05-03T00:55:02.000Z,99795
2019-05-03T00:56:47.000Z,99786
2019-05-03T00:59:02.000Z,99784
2019-05-03T01:00:32.000Z,99785
2019-05-03T01:01:47.000Z,99788
2019-05-03T01:03:32.000Z,99783
2019-05-03T01:05:02.000Z,99784
2019-05-03T01:07:02.000Z,99783
2019-05-03T01:08:32.000Z,99779
2019-05-03T01:10:02.000Z,99784
2019-05-03T01:11:32.000Z,99782
2019-05-03T01:13:47.000Z,99787
2019-05-03T01:15:02.000Z,99787
2019-05-03T01:17:02.000Z,99786
2019-05-03T01:18:32.000Z,99786
2019-05-03T01:19:47.000Z,99788
2019-05-03T01:22:02.000Z,99782
2019-05-03T01:23:47.000Z,99776
2019-05-03T01:25:35.000Z,99778
2019-05-03T01:27:32.000Z,99772
2019-05-03T01:29:47.000Z,99779
2019-05-03T01:32:02.000Z,99784
2019-05-03T01:33:47.000Z,99777
2019-05-03T01:35:47.000Z,99780
2019-05-03T01:37:47.000Z,99780
2019-05-03T01:39:46.000Z,99784
2019-05-03T01:41:47.000Z,99783
2019-05-03T01:44:01.000Z,99786
2019-05-03T01:46:01.000Z,99784
2019-05-03T01:47:31.000Z,99786
2019-05-03T01:48:46.000Z,99784
2019-05-03T01:50:46.000Z,99783
2019-05-03T01:52:47.000Z,99788
2019-05-03T01:54:46.000Z,99788
2019-05-03T01:56:46.000Z,99795
2019-05-03T01:58:47.000Z,99792
2019-05-03T02:01:01.000Z,99802
2019-05-03T02:02:31.000Z,99783
2019-05-03T02:04:46.000Z,99793
2019-05-03T02:07:01.000Z,99797
2019-05-03T02:08:32.000Z,99794
2019-05-03T02:10:46.000Z,99796
2019-05-03T02:12:46.000Z,99799
2019-05-03T02:15:01.000Z,99801
2019-05-03T02:16:47.000Z,99801
2019-05-03T02:18:01.000Z,99797
2019-05-03T02:19:47.000Z,99802
2019-05-03T02:21:46.000Z,99797
2019-05-03T02:23:01.000Z,99796
2019-05-03T02:24:31.000Z,99796
2019-05-03T02:25:47.000Z,99805
2019-05-03T02:27:47.000Z,99804
2019-05-03T02:29:47.000Z,99816
2019-05-03T02:31:47.000Z,99817
2019-05-03T02:33:47.000Z,99822
2019-05-03T02:35:48.000Z,99817
2019-05-03T02:37:47.000Z,99820
2019-05-03T02:39:48.000Z,99824
2019-05-03T02:41:46.000Z,99826
2019-05-03T02:44:01.000Z,99828
2019-05-03T02:46:01.000Z,99822
2019-05-03T02:47:01.000Z,99821
2019-05-03T02:48:46.000Z,99820
2019-05-03T02:50:01.000Z,99825
2019-05-03T02:51:01.000Z,99823
2019-05-03T02:53:01.000Z,99830
2019-05-03T02:54:01.000Z,99821
2019-05-03T02:56:01.000Z,99825
2019-05-03T02:58:01.000Z,99831
2019-05-03T02:59:46.000Z,99830
2019-05-03T03:02:01.000Z,99826
2019-05-03T03:04:01.000Z,99823
2019-05-03T03:06:01.000Z,99835
2019-05-03T03:07:01.000Z,99831
2019-05-03T03:08:01.000Z,99835
2019-05-03T03:10:01.000Z,99833
2019-05-03T03:11:46.000Z,99833
2019-05-03T03:13:01.000Z,99833
2019-05-03T03:15:01.000Z,99833
2019-05-03T03:16:46.000Z,99835
2019-05-03T03:18:01.000Z,99832
2019-05-03T03:19:01.000Z,99832
2019-05-03T03:20:46.000Z,99836
2019-05-03T03:22:01.000Z,99837
2019-05-03T03:23:01.000Z,99839
2019-05-03T03:25:01.000Z,99839
2019-05-03T03:26:31.000Z,99842
2019-05-03T03:28:01.000Z,99840
2019-05-03T03:29:46.000Z,99842
2019-05-03T03:30:46.000Z,99840
2019-05-03T03:32:46.000Z,99848
2019-05-03T03:33:46.000Z,99845
2019-05-03T03:34:46.000Z,99846
2019-05-03T03:35:46.000Z,99852
2019-05-03T03:38:01.000Z,99851
2019-05-03T03:39:01.000Z,99857
2019-05-03T03:40:01.000Z,99848
2019-05-03T03:41:30.000Z,99850
2019-05-03T03:43:01.000Z,99849
2019-05-03T03:45:01.000Z,99847
2019-05-03T03:46:31.000Z,99848
2019-05-03T03:48:01.000Z,99850
2019-05-03T03:50:01.000Z,99852
2019-05-03T03:52:01.000Z,99855
2019-05-03T03:53:01.000Z,99854
2019-05-03T03:55:01.000Z,99859
2019-05-03T03:56:46.000Z,99850
2019-05-03T03:59:01.000Z,99859
2019-05-03T04:01:01.000Z,99859
2019-05-03T04:02:01.000Z,99864
2019-05-03T04:03:01.000Z,99863
2019-05-03T04:05:01.000Z,99866
2019-05-03T04:07:01.000Z,99863
2019-05-03T04:09:01.000Z,99869
2019-05-03T04:11:01.000Z,99871
2019-05-03T04:12:46.000Z,99873
2019-05-03T04:14:01.000Z,99872
2019-05-03T04:15:46.000Z,99872
2019-05-03T04:17:01.000Z,99875
2019-05-03T04:19:01.000Z,99887
2019-05-03T04:21:01.000Z,99888
2019-05-03T04:22:46.000Z,99894
2019-05-03T04:24:01.000Z,99897
2019-05-03T04:26:01.000Z,99890
2019-05-03T04:28:01.000Z,99907
2019-05-03T04:30:01.000Z,99906
2019-05-03T04:32:01.000Z,99906
2019-05-03T04:33:01.000Z,99918
2019-05-03T04:35:01.000Z,99911
2019-05-03T04:37:01.000Z,99914
2019-05-03T04:39:01.000Z,99918
2019-05-03T04:41:01.000Z,99930
2019-05-03T04:43:01.000Z,99934
2019-05-03T04:44:01.000Z,99933
2019-05-03T04:45:01.000Z,99933
2019-05-03T04:47:01.000Z,99926
2019-05-03T04:49:01.000Z,99931
2019-05-03T04:51:01.000Z,99943
2019-05-03T04:52:01.000Z,99940
2019-05-03T04:54:01.000Z,99941
2019-05-03T04:56:01.000Z,99944
2019-05-03T04:57:31.000Z,99944
2019-05-03T04:59:01.000Z,99947
2019-05-03T05:01:01.000Z,99948
2019-05-03T05:02:46.000Z,99943
2019-05-03T05:04:01.000Z,99948
2019-05-03T05:06:01.000Z,99950
2019-05-03T05:08:01.000Z,99958
2019-05-03T05:09:46.000Z,99952
2019-05-03T05:10:46.000Z,99951
2019-05-03T05:12:46.000Z,99956
2019-05-03T05:14:01.000Z,99957
2019-05-03T05:15:01.000Z,99955
2019-05-03T05:17:01.000Z,99962
2019-05-03T05:18:46.000Z,99966
2019-05-03T05:20:01.000Z,99971
2019-05-03T05:21:01.000Z,99966
2019-05-03T05:22:46.000Z,99971
2019-05-03T05:25:01.000Z,99975
2019-05-03T05:26:46.000Z,99975
2019-05-03T05:27:46.000Z,99985
2019-05-03T05:30:01.000Z,99985
2019-05-03T05:32:01.000Z,99984
2019-05-03T05:34:01.000Z,99991
2019-05-03T05:35:01.000Z,99989
2019-05-03T05:37:01.000Z,99988
2019-05-03T05:39:01.000Z,99989
2019-05-03T05:41:01.000Z,99989
2019-05-03T05:43:01.000Z,99992
2019-05-03T05:44:01.000Z,99989
2019-05-03T05:46:01.000Z,99984
2019-05-03T05:47:01.000Z,99987
2019-05-03T05:49:01.000Z,99991
2019-05-03T05:51:01.000Z,99994
2019-05-03T05:53:01.000Z,99992
2019-05-03T05:54:46.000Z,99994
2019-05-03T05:56:01.000Z,99997
2019-05-03T05:57:31.000Z,99991
2019-05-03T05:59:01.000Z,99996
2019-05-03T06:00:46.000Z,99997
2019-05-03T06:02:01.000Z,100000
2019-05-03T06:04:01.000Z,99998
2019-05-03T06:05:46.000Z,99999
2019-05-03T06:07:01.000Z,99993
2019-05-03T06:09:01.000Z,99999
2019-05-03T06:10:01.000Z,99993
2019-05-03T06:12:01.000Z,100005
2019-05-03T06:14:01.000Z,100002
2019-05-03T06:16:01.000Z,100005
2019-05-03T06:17:01.000Z,100005
2019-05-03T06:19:01.000Z,100008
2019-05-03T06:21:01.000Z,100004
2019-05-03T06:23:01.000Z,100005
2019-05-03T06:25:01.000Z,100005
2019-05-03T06:27:01.000Z,100002
2019-05-03T06:28:01.000Z,100009
2019-05-03T06:30:01.000Z,100005
2019-05-03T06:32:01.000Z,100008
2019-05-03T06:34:01.000Z,100004
2019-05-03T06:36:01.000Z,100009
2019-05-03T06:37:01.000Z,100011
2019-05-03T06:39:01.000Z,100015
2019-05-03T06:40:46.000Z,100015
2019-05-03T06:42:01.000Z,100012
2019-05-03T06:43:46.000Z,100013
2019-05-03T06:45:46.000Z,100014
2019-05-03T07:28:39.000Z,100019
2019-05-03T07:29:55.000Z,100020
2019-05-03T07:31:10.000Z,100020
2019-05-03T07:32:10.000Z,100025
2019-05-03T07:34:10.000Z,100022
2019-05-03T07:36:10.000Z,100015
2019-05-03T07:38:10.000Z,100015
2019-05-03T07:39:54.000Z,100009
2019-05-03T07:41:10.000Z,100014
2019-05-03T07:42:55.000Z,100011
2019-05-03T07:44:55.000Z,100002
2019-05-03T07:47:10.000Z,100010
2019-05-03T07:48:54.000Z,100007
2019-05-03T07:50:10.000Z,100008
2019-05-03T07:51:54.000Z,100014
2019-05-03T07:52:55.000Z,100005
2019-05-03T07:55:10.000Z,100015
2019-05-03T07:57:10.000Z,100010
2019-05-03T07:58:55.000Z,100010
2019-05-03T08:00:55.000Z,100016
2019-05-03T08:02:54.000Z,100022
2019-05-03T08:04:10.000Z,100021
2019-05-03T08:06:10.000Z,100025
2019-05-03T08:08:10.000Z,100029
2019-05-03T08:09:55.000Z,100022
2019-05-03T08:12:10.000Z,100027
2019-05-03T08:14:10.000Z,100028
2019-05-03T08:15:54.000Z,100026
2019-05-03T08:17:10.000Z,100027
2019-05-03T08:18:10.000Z,100028
2019-05-03T08:20:10.000Z,100021
2019-05-03T08:21:39.000Z,100027
2019-05-03T08:23:10.000Z,100023
2019-05-03T08:24:55.000Z,100020
2019-05-03T08:26:55.000Z,100018
2019-05-03T08:29:10.000Z,100017
2019-05-03T08:31:10.000Z,100018
2019-05-03T08:32:10.000Z,100028
2019-05-03T08:33:54.000Z,100029
2019-05-03T08:34:55.000Z,100021
2019-05-03T08:37:10.000Z,100024
2019-05-03T08:38:55.000Z,100029
2019-05-03T08:41:10.000Z,100018
2019-05-03T08:43:10.000Z,100016
2019-05-03T08:44:39.000Z,100017
2019-05-03T08:46:10.000Z,100021
2019-05-03T08:47:54.000Z,100018
2019-05-03T08:49:10.000Z,100024
2019-05-03T08:50:54.000Z,100025
2019-05-03T08:52:10.000Z,100020
2019-05-03T08:53:55.000Z,100017
2019-05-03T08:56:10.000Z,100017
2019-05-03T08:57:54.000Z,100019
2019-05-03T08:58:54.000Z,100015
2019-05-03T09:00:10.000Z,100019
2019-05-03T09:01:10.000Z,100019
2019-05-03T09:02:54.000Z,100012
2019-05-03T09:03:54.000Z,100012
2019-05-03T09:05:55.000Z,100011
2019-05-03T09:07:54.000Z,100017
2019-05-03T09:08:54.000Z,100011
2019-05-03T09:11:09.000Z,100010
2019-05-03T09:13:09.000Z,100011
2019-05-03T09:14:39.000Z,100009
2019-05-03T09:15:54.000Z,100005
2019-05-03T09:18:09.000Z,100005
2019-05-03T09:20:09.000Z,99995
2019-05-03T09:21:09.000Z,99996
2019-05-03T09:23:09.000Z,99994
2019-05-03T09:24:39.000Z,99993
2019-05-03T09:26:09.000Z,100000
2019-05-03T09:27:54.000Z,100001
2019-05-03T09:29:39.000Z,99995
2019-05-03T09:31:09.000Z,100007
2019-05-03T09:32:09.000Z,100007
2019-05-03T09:33:54.000Z,100006
2019-05-03T09:35:09.000Z,100007
2019-05-03T09:37:09.000Z,100004
2019-05-03T09:38:40.000Z,99999
2019-05-03T09:40:09.000Z,100002
2019-05-03T09:41:09.000Z,99999
2019-05-03T09:43:09.000Z,100006
2019-05-03T09:44:54.000Z,100002
2019-05-03T09:46:09.000Z,100005
2019-05-03T09:47:09.000Z,100004
2019-05-03T09:48:54.000Z,100004
2019-05-03T09:50:54.000Z,100003
2019-05-03T09:53:09.000Z,100005
2019-05-03T09:55:09.000Z,99996
2019-05-03T09:56:40.000Z,99996
2019-05-03T09:57:54.000Z,100000
2019-05-03T09:58:54.000Z,99996
2019-05-03T10:00:54.000Z,99993
2019-05-03T10:02:09.000Z,99989
2019-05-03T10:03:54.000Z,99994
2019-05-03T10:04:54.000Z,99984
2019-05-03T10:06:09.000Z,99988
2019-05-03T10:08:09.000Z,99991
2019-05-03T10:09:09.000Z,99986
2019-05-03T10:11:09.000Z,99983
2019-05-03T10:13:10.000Z,99986
2019-05-03T10:15:10.000Z,99977
2019-05-03T10:16:10.000Z,99977
2019-05-03T10:17:55.000Z,99982
2019-05-03T10:19:10.000Z,99991
2019-05-03T10:20:55.000Z,99982
2019-05-03T10:22:55.000Z,99981
2019-05-03T10:24:10.000Z,99981
2019-05-03T10:25:55.000Z,99981
2019-05-03T10:28:10.000Z,99981
2019-05-03T10:29:10.000Z,99979
2019-05-03T10:31:10.000Z,99981
2019-05-03T10:33:10.000Z,99983
2019-05-03T10:35:10.000Z,99977
2019-05-03T10:36:10.000Z,99964
2019-05-03T10:38:10.000Z,99979
2019-05-03T10:39:55.000Z,99973
2019-05-03T10:42:10.000Z,99972
2019-05-03T10:43:55.000Z,99978
2019-05-03T10:45:10.000Z,99981
2019-05-03T10:46:55.000Z,99972
2019-05-03T10:48:55.000Z,99976
2019-05-03T10:50:55.000Z,99976
2019-05-03T10:52:55.000Z,99977
2019-05-03T10:54:10.000Z,99977
2019-05-03T10:55:55.000Z,99975
2019-05-03T10:58:10.000Z,99978
2019-05-03T10:59:10.000Z,99981
2019-05-03T11:00:40.000Z,99984
2019-05-03T11:02:10.000Z,99985
2019-05-03T11:03:10.000Z,99980
2019-05-03T11:04:40.000Z,99983
2019-05-03T11:05:55.000Z,99972
2019-05-03T11:07:10.000Z,99978
2019-05-03T11:08:55.000Z,99977
2019-05-03T11:11:10.000Z,99976
2019-05-03T11:12:55.000Z,99968
2019-05-03T11:14:10.000Z,99985
2019-05-03T11:15:55.000Z,99986
2019-05-03T11:17:10.000Z,99977
2019-05-03T11:18:10.000Z,99974
2019-05-03T11:20:10.000Z,99977
2019-05-03T11:22:10.000Z,99973
2019-05-03T11:23:55.000Z,99986
2019-05-03T11:25:10.000Z,99973
2019-05-03T11:26:55.000Z,99982
2019-05-03T11:28:10.000Z,99982
2019-05-03T11:29:54.000Z,99986
2019-05-03T11:32:10.000Z,99980
2019-05-03T11:33:55.000Z,99979
2019-05-03T11:36:10.000Z,99968
2019-05-03T11:37:10.000Z,99971
2019-05-03T11:38:55.000Z,99965
2019-05-03T11:40:55.000Z,99963
2019-05-03T11:43:10.000Z,99959
2019-05-03T11:45:10.000Z,99961
2019-05-03T11:47:10.000Z,99957
2019-05-03T11:49:10.000Z,99961
2019-05-03T11:52:01.000Z,99952
2019-05-03T11:53:31.000Z,99961
2019-05-03T11:55:16.000Z,99963
2019-05-03T11:56:31.000Z,99958
2019-05-03T11:58:31.000Z,99960
2019-05-03T11:59:31.000Z,99960
2019-05-03T12:01:01.000Z,99951
2019-05-03T12:02:31.000Z,99949
2019-05-03T12:03:31.000Z,99956
2019-05-03T12:05:01.000Z,99962
2019-05-03T12:06:31.000Z,99954
2019-05-03T12:08:31.000Z,99963
2019-05-03T12:10:01.000Z,99954
2019-05-03T12:11:16.000Z,99946
2019-05-03T12:12:31.000Z,99950
2019-05-03T12:14:01.000Z,99946
2019-05-03T12:15:31.000Z,99951
2019-05-03T12:17:16.000Z,99945
2019-05-03T12:19:01.000Z,99940
2019-05-03T12:20:03.000Z,99935
2019-05-03T12:22:01.000Z,99943
2019-05-03T12:23:02.000Z,99947
2019-05-03T12:24:02.000Z,99946
2019-05-03T12:25:02.000Z,99947
2019-05-03T12:27:31.000Z,99945
2019-05-03T12:28:31.000Z,99941
2019-05-03T12:30:16.000Z,99928
2019-05-03T12:31:16.000Z,99929
2019-05-03T12:33:31.000Z,99925
2019-05-03T12:35:31.000Z,99930
2019-05-03T12:37:31.000Z,99923
2019-05-03T12:38:31.000Z,99919
2019-05-03T12:40:31.000Z,99919
2019-05-03T12:42:16.000Z,99916
2019-05-03T12:43:31.000Z,99917
2019-05-03T12:44:31.000Z,99914
2019-05-03T12:45:31.000Z,99915
2019-05-03T12:47:02.000Z,99920
2019-05-03T12:48:31.000Z,99921
2019-05-03T12:49:31.000Z,99923
2019-05-03T12:51:01.000Z,99915
2019-05-03T12:52:16.000Z,99923
2019-05-03T12:54:16.000Z,99920
2019-05-03T12:55:31.000Z,99917
2019-05-03T12:57:30.000Z,99916
2019-05-03T12:58:31.000Z,99919
2019-05-03T13:00:15.000Z,99928
2019-05-03T13:01:31.000Z,99920
2019-05-03T13:03:31.000Z,99922
2019-05-03T13:05:31.000Z,99917
2019-05-03T13:07:30.000Z,99922
2019-05-03T13:09:31.000Z,99922
2019-05-03T13:11:15.000Z,99919
2019-05-03T13:12:31.000Z,99919
2019-05-03T13:14:31.000Z,99918
2019-05-03T13:15:31.000Z,99920
2019-05-03T13:17:01.000Z,99917
2019-05-03T13:18:30.000Z,99912
2019-05-03T13:19:31.000Z,99910
2019-05-03T13:21:31.000Z,99907
2019-05-03T13:22:31.000Z,99911
2019-05-03T13:24:16.000Z,99909
2019-05-03T13:26:30.000Z,99914
2019-05-03T13:27:31.000Z,99912
2019-05-03T13:29:31.000Z,99912
2019-05-03T13:31:15.000Z,99908
2019-05-03T13:33:30.000Z,99909
2019-05-03T13:34:31.000Z,99903
2019-05-03T13:35:31.000Z,99897
2019-05-03T13:37:31.000Z,99895
2019-05-03T13:39:01.000Z,99902
2019-05-03T13:40:30.000Z,99896
2019-05-03T13:41:31.000Z,99890
2019-05-03T13:43:01.000Z,99882
2019-05-03T13:44:30.000Z,99894
2019-05-03T13:46:31.000Z,99895
2019-05-03T13:48:16.000Z,99889
2019-05-03T13:50:31.000Z,99882
2019-05-03T13:51:31.000Z,99886
2019-05-03T13:53:31.000Z,99890
2019-05-03T13:55:30.000Z,99889
2019-05-03T13:57:16.000Z,99884
2019-05-03T13:59:16.000Z,99887
2019-05-03T14:01:16.000Z,99880
2019-05-03T14:03:31.000Z,99888
2019-05-03T14:04:31.000Z,99882
2019-05-03T14:06:31.000Z,99883
2019-05-03T14:08:31.000Z,99879
2019-05-03T14:10:16.000Z,99880
2019-05-03T14:11:31.000Z,99877
2019-05-03T14:12:31.000Z,99875
2019-05-03T14:14:16.000Z,99874
2019-05-03T14:15:31.000Z,99872
2019-05-03T14:17:31.000Z,99874
2019-05-03T14:19:31.000Z,99864
2019-05-03T14:21:16.000Z,99868
2019-05-03T14:22:31.000Z,99865
2019-05-03T14:23:31.000Z,99858
2019-05-03T14:24:31.000Z,99861
2019-05-03T14:26:31.000Z,99863
2019-05-03T14:28:31.000Z,99865
2019-05-03T14:29:31.000Z,99859
2019-05-03T14:31:31.000Z,99858
2019-05-03T14:33:31.000Z,99857
2019-05-03T14:35:16.000Z,99857
2019-05-03T14:36:31.000Z,99856
2019-05-03T14:38:16.000Z,99851
2019-05-03T14:39:31.000Z,99856
2019-05-03T14:41:31.000Z,99851
2019-05-03T14:43:31.000Z,99857
2019-05-03T14:45:31.000Z,99854
2019-05-03T14:47:16.000Z,99851
2019-05-03T14:48:31.000Z,99848
2019-05-03T14:49:31.000Z,99845
2019-05-03T14:51:31.000Z,99846
2019-05-03T14:52:31.000Z,99849
2019-05-03T14:54:31.000Z,99846
2019-05-03T14:55:31.000Z,99844
2019-05-03T14:57:16.000Z,99853
2019-05-03T14:58:16.000Z,99842
2019-05-03T15:00:16.000Z,99847
2019-05-03T15:02:16.000Z,99841
2019-05-03T15:03:31.000Z,99842
2019-05-03T15:04:31.000Z,99836
2019-05-03T15:06:31.000Z,99840
2019-05-03T15:07:31.000Z,99839
2019-05-03T15:09:16.000Z,99834
2019-05-03T15:11:31.000Z,99831
2019-05-03T15:13:31.000Z,99831
2019-05-03T15:15:31.000Z,99837
2019-05-03T15:17:31.000Z,99834
2019-05-03T15:19:31.000Z,99839
2019-05-03T15:20:31.000Z,99836
2019-05-03T15:22:31.000Z,99832
2019-05-03T15:24:16.000Z,99834
2019-05-03T15:25:31.000Z,99834
2019-05-03T15:26:31.000Z,99832
2019-05-03T15:28:31.000Z,99829
2019-05-03T15:30:31.000Z,99824
2019-05-03T15:32:16.000Z,99831
2019-05-03T15:33:31.000Z,99824
2019-05-03T15:35:16.000Z,99822
2019-05-03T15:36:31.000Z,99825
2019-05-03T15:38:31.000Z,99818
2019-05-03T15:40:16.000Z,99821
2019-05-03T15:41:31.000Z,99822
2019-05-03T15:42:31.000Z,99824
2019-05-03T15:44:31.000Z,99825
2019-05-03T15:45:31.000Z,99822
2019-05-03T15:47:16.000Z,99833
2019-05-03T15:48:31.000Z,99828
2019-05-03T15:49:31.000Z,99820
2019-05-03T15:51:31.000Z,99824
2019-05-03T15:52:31.000Z,99831
2019-05-03T15:54:16.000Z,99821
2019-05-03T15:55:31.000Z,99827
2019-05-03T15:56:31.000Z,99821
2019-05-03T15:58:31.000Z,99823
2019-05-03T16:00:31.000Z,99824
2019-05-03T16:02:31.000Z,99817
2019-05-03T16:04:31.000Z,99815
2019-05-03T16:05:31.000Z,99820
2019-05-03T16:06:31.000Z,99816
2019-05-03T16:08:31.000Z,99818
2019-05-03T16:09:31.000Z,99822
2019-05-03T16:11:31.000Z,99820
2019-05-03T16:12:31.000Z,99814
2019-05-03T16:14:31.000Z,99813
2019-05-03T16:15:31.000Z,99820
2019-05-03T16:17:16.000Z,99813
2019-05-03T16:18:31.000Z,99811
2019-05-03T16:20:31.000Z,99806
2019-05-03T16:22:31.000Z,99807
2019-05-03T16:24:31.000Z,99805
2019-05-03T16:25:31.000Z,99808
2019-05-03T16:27:31.000Z,99802
2019-05-03T16:29:16.000Z,99800
2019-05-03T16:30:31.000Z,99803
2019-05-03T16:32:31.000Z,99803
2019-05-03T16:34:16.000Z,99800
2019-05-03T16:35:16.000Z,99806
2019-05-03T16:36:31.000Z,99800
2019-05-03T16:38:31.000Z,99809
2019-05-03T16:39:31.000Z,99807
2019-05-03T16:41:16.000Z,99808
2019-05-03T16:43:31.000Z,99809
2019-05-03T16:44:31.000Z,99811
2019-05-03T16:46:16.000Z,99812
2019-05-03T16:47:31.000Z,99811
2019-05-03T16:49:16.000Z,99809
2019-05-03T16:50:31.000Z,99804
2019-05-03T16:52:16.000Z,99807
2019-05-03T16:53:31.000Z,99807
2019-05-03T16:55:31.000Z,99812
2019-05-03T16:57:16.000Z,99813
2019-05-03T16:59:16.000Z,99810
2019-05-03T17:00:16.000Z,99808
2019-05-03T17:02:16.000Z,99800
2019-05-03T17:04:31.000Z,99805
2019-05-03T17:06:31.000Z,99800
2019-05-03T17:08:31.000Z,99801
2019-05-03T17:09:31.000Z,99806
2019-05-03T17:11:31.000Z,99804
2019-05-03T17:12:31.000Z,99806
2019-05-03T17:14:31.000Z,99810
2019-05-03T17:16:31.000Z,99804
2019-05-03T17:17:31.000Z,99803
2019-05-03T17:19:16.000Z,99810
2019-05-03T17:21:31.000Z,99805
2019-05-03T17:23:31.000Z,99804
2019-05-03T17:25:16.000Z,99809
2019-05-03T17:26:16.000Z,99813
2019-05-03T17:28:31.000Z,99813
2019-05-03T17:29:31.000Z,99811
2019-05-03T17:31:16.000Z,99812
2019-05-03T17:32:31.000Z,99810
2019-05-03T17:33:31.000Z,99815
2019-05-03T17:35:31.000Z,99818
2019-05-03T17:37:16.000Z,99811
2019-05-03T17:38:31.000Z,99815
2019-05-03T17:39:31.000Z,99813
2019-05-03T17:41:31.000Z,99820
2019-05-03T17:43:31.000Z,99812
2019-05-03T17:45:31.000Z,99804
2019-05-03T17:47:31.000Z,99803
2019-05-03T17:49:31.000Z,99803
2019-05-03T17:51:31.000Z,99801
2019-05-03T17:53:31.000Z,99802
2019-05-03T17:55:31.000Z,99799
2019-05-03T17:57:31.000Z,99798
2019-05-03T17:59:31.000Z,99796
2019-05-03T18:00:31.000Z,99798
2019-05-03T18:02:01.000Z,99799
2019-05-03T18:03:31.000Z,99798
2019-05-03T18:05:31.000Z,99799
2019-05-03T18:06:31.000Z,99800
2019-05-03T18:08:31.000Z,99806
2019-05-03T18:09:31.000Z,99804
2019-05-03T18:11:31.000Z,99801
2019-05-03T18:13:16.000Z,99798
2019-05-03T18:15:31.000Z,99795
2019-05-03T18:17:31.000Z,99799
2019-05-03T18:19:31.000Z,99798
2019-05-03T18:21:31.000Z,99797
2019-05-03T18:23:31.000Z,99799
2019-05-03T18:25:31.000Z,99798
2019-05-03T18:27:31.000Z,99796
2019-05-03T18:29:31.000Z,99796
2019-05-03T18:30:31.000Z,99796
2019-05-03T18:31:31.000Z,99798
2019-05-03T18:33:16.000Z,99792
2019-05-03T18:34:16.000Z,99793
2019-05-03T18:36:31.000Z,99798
2019-05-03T18:38:31.000Z,99798
2019-05-03T18:39:31.000Z,99793
2019-05-03T18:41:31.000Z,99797
2019-05-03T18:43:31.000Z,99796
2019-05-03T18:44:31.000Z,99799
2019-05-03T18:45:31.000Z,99795
2019-05-03T18:47:31.000Z,99791
2019-05-03T18:49:31.000Z,99794
2019-05-03T18:50:31.000Z,99793
2019-05-03T18:52:31.000Z,99797
2019-05-03T18:53:31.000Z,99795
2019-05-03T18:55:31.000Z,99800
2019-05-03T18:57:31.000Z,99798
2019-05-03T18:59:31.000Z,99799
2019-05-03T19:01:31.000Z,99801
2019-05-03T19:03:31.000Z,99803
2019-05-03T19:04:31.000Z,99799
2019-05-03T19:06:16.000Z,99800
2019-05-03T19:08:31.000Z,99804
2019-05-03T19:10:31.000Z,99805
2019-05-03T19:12:16.000Z,99808
2019-05-03T19:13:31.000Z,99805
2019-05-03T19:15:16.000Z,99805
2019-05-03T19:16:31.000Z,99802
2019-05-03T19:18:31.000Z,99805
2019-05-03T19:20:31.000Z,99803
2019-05-03T19:21:31.000Z,99800
2019-05-03T19:23:31.000Z,99797
2019-05-03T19:24:31.000Z,99804
2019-05-03T19:26:31.000Z,99801
2019-05-03T19:27:31.000Z,99803
2019-05-03T19:29:31.000Z,99799
2019-05-03T19:31:31.000Z,99806
2019-05-03T19:32:31.000Z,99806
2019-05-03T19:34:00.000Z,99796
2019-05-03T19:35:31.000Z,99803
2019-05-03T19:37:15.000Z,99801
2019-05-03T19:38:31.000Z,99797
2019-05-03T19:40:31.000Z,99803
2019-05-03T19:42:31.000Z,99810
2019-05-03T19:44:15.000Z,99801
2019-05-03T19:45:31.000Z,99802
2019-05-03T19:46:31.000Z,99800
2019-05-03T19:48:16.000Z,99802
2019-05-03T19:50:31.000Z,99798
2019-05-03T19:52:15.000Z,99798
2019-05-03T19:53:31.000Z,99801
2019-05-03T19:54:31.000Z,99800
2019-05-03T19:56:31.000Z,99799
2019-05-03T19:58:31.000Z,99794
2019-05-03T20:00:15.000Z,99797
2019-05-03T20:01:31.000Z,99790
2019-05-03T20:03:15.000Z,99793
2019-05-03T20:04:31.000Z,99798
2019-05-03T20:06:15.000Z,99796
2019-05-03T20:07:31.000Z,99797
2019-05-03T20:08:31.000Z,99793
2019-05-03T20:10:16.000Z,99797
2019-05-03T20:12:31.000Z,99791
2019-05-03T20:14:31.000Z,99796
2019-05-03T20:16:31.000Z,99793
2019-05-03T20:18:16.000Z,99790
2019-05-03T20:20:31.000Z,99787
2019-05-03T20:21:31.000Z,99791
2019-05-03T20:23:31.000Z,99787
2019-05-03T20:25:31.000Z,99792
2019-05-03T20:27:31.000Z,99788
2019-05-03T20:29:31.000Z,99782
2019-05-03T20:30:31.000Z,99785
2019-05-03T20:32:16.000Z,99784
2019-05-03T20:33:31.000Z,99782
2019-05-03T20:35:01.000Z,99779
2019-05-03T20:36:31.000Z,99783
2019-05-03T20:37:31.000Z,99785
2019-05-03T20:39:31.000Z,99780
2019-05-03T20:41:31.000Z,99781
2019-05-03T20:43:31.000Z,99782
2019-05-03T20:44:31.000Z,99779
2019-05-03T20:45:31.000Z,99782
2019-05-03T20:47:16.000Z,99778
2019-05-03T20:48:31.000Z,99781
2019-05-03T20:50:31.000Z,99780
2019-05-03T20:52:31.000Z,99780
2019-05-03T20:53:31.000Z,99779
2019-05-03T20:55:31.000Z,99779
2019-05-03T20:57:31.000Z,99781
2019-05-03T20:58:31.000Z,99781
2019-05-03T21:00:31.000Z,99782
2019-05-03T21:02:31.000Z,99775
2019-05-03T21:04:31.000Z,99778
2019-05-03T21:06:03.000Z,99775
2019-05-03T21:07:16.000Z,99781
2019-05-03T21:09:31.000Z,99779
2019-05-03T21:11:31.000Z,99770
2019-05-03T21:13:31.000Z,99775
2019-05-03T21:15:31.000Z,99773
2019-05-03T21:17:31.000Z,99773
2019-05-03T21:19:31.000Z,99772
2019-05-03T21:20:31.000Z,99765
2019-05-03T21:22:16.000Z,99766
2019-05-03T21:23:31.000Z,99763
2019-05-03T21:25:31.000Z,99763
2019-05-03T21:27:16.000Z,99756
2019-05-03T21:29:31.000Z,99756
2019-05-03T21:30:31.000Z,99756
2019-05-03T21:32:31.000Z,99758
2019-05-03T21:34:31.000Z,99755
2019-05-03T21:36:31.000Z,99750
2019-05-03T21:37:31.000Z,99746
2019-05-03T21:39:31.000Z,99742
2019-05-03T21:40:31.000Z,99748
2019-05-03T21:42:31.000Z,99751
2019-05-03T21:43:31.000Z,99753
2019-05-03T21:45:31.000Z,99748
2019-05-03T21:47:31.000Z,99753
2019-05-03T21:48:31.000Z,99754
2019-05-03T21:50:31.000Z,99755
2019-05-03T21:52:31.000Z,99753
2019-05-03T21:53:31.000Z,99759
2019-05-03T21:54:31.000Z,99757
2019-05-03T21:56:31.000Z,99755